Time;durP1;ratioP1;P1;durP2;ratioP2;P2;SDS_P1;SDS_P2;PMS_P1;PMS_P2;Temp;Humidity;BMP_temperature;BMP_pressure;BME280_temperature;BME280_humidity;BME280_pressure;Samples;Min_cycle;Max_cycle;Signal;HPM_P1;HPM_P2
2024/01/20 00:02:12;;;;;;;13.27;6.17;;;0.70;99.90;;;;;;5013334;28;20124;-86
2024/01/20 00:04:38;;;;;;;9.03;5.23;;;0.70;99.90;;;;;;4995460;28;20038;-86
2024/01/20 00:07:04;;;;;;;12.17;5.00;;;0.70;99.90;;;;;;4979823;28;20045;-86
2024/01/20 00:09:30;;;;;;;7.07;4.60;;;0.70;99.90;;;;;;4987594;28;20549;-86
2024/01/20 00:11:56;;;;;;;10.03;4.83;;;0.70;99.90;;;;;;4978444;28;20048;-86
2024/01/20 00:14:21;;;;;;;11.83;5.30;;;0.70;99.90;;;;;;4974703;28;20030;-86
2024/01/20 00:16:47;;;;;;;12.30;5.17;;;0.60;99.90;;;;;;5009253;28;20441;-86
2024/01/20 00:19:13;;;;;;;11.60;6.07;;;0.50;99.90;;;;;;4987215;28;20072;-86
2024/01/20 00:21:39;;;;;;;13.87;6.43;;;0.50;99.90;;;;;;4998474;28;20041;-86
2024/01/20 00:24:06;;;;;;;13.83;6.23;;;0.50;99.90;;;;;;4995723;28;20045;-85
2024/01/20 00:26:31;;;;;;;14.03;6.50;;;0.90;99.90;;;;;;4978468;28;20073;-86
2024/01/20 00:28:57;;;;;;;14.07;6.70;;;0.40;99.90;;;;;;4999302;28;20085;-87
2024/01/20 00:31:22;;;;;;;11.13;7.00;;;0.40;99.90;;;;;;4993013;28;20034;-86
2024/01/20 00:33:48;;;;;;;14.17;7.27;;;0.40;99.90;;;;;;4995396;28;20034;-86
2024/01/20 00:36:14;;;;;;;18.00;7.83;;;0.30;99.90;;;;;;5010149;28;20042;-86
2024/01/20 00:38:41;;;;;;;15.63;8.30;;;0.40;99.90;;;;;;4993664;28;20125;-86
2024/01/20 00:41:07;;;;;;;11.93;7.43;;;0.40;99.90;;;;;;4995075;28;20492;-86
2024/01/20 00:43:33;;;;;;;14.13;7.83;;;0.40;99.90;;;;;;4995254;28;20038;-86
2024/01/20 00:45:59;;;;;;;13.47;8.07;;;0.40;99.90;;;;;;4995370;28;20123;-86
2024/01/20 00:48:24;;;;;;;13.10;7.77;;;0.50;99.90;;;;;;4982188;28;20042;-86
2024/01/20 00:50:53;;;;;;;13.50;8.63;;;0.40;99.90;;;;;;4994973;28;20033;-86
2024/01/20 00:53:19;;;;;;;14.40;8.40;;;1.80;99.90;;;;;;4995735;28;20402;-86
2024/01/20 00:55:44;;;;;;;11.37;8.17;;;0.50;99.90;;;;;;4978555;28;20041;-86
2024/01/20 00:58:10;;;;;;;13.97;8.40;;;0.60;99.90;;;;;;4990814;28;20046;-86
2024/01/20 01:00:37;;;;;;;15.00;8.23;;;0.60;99.90;;;;;;4988517;28;20031;-86
2024/01/20 01:03:03;;;;;;;14.03;8.87;;;0.60;99.90;;;;;;4990890;28;20038;-86
2024/01/20 01:05:29;;;;;;;18.93;8.70;;;0.60;99.90;;;;;;4994722;28;20042;-86
2024/01/20 01:07:55;;;;;;;13.67;8.90;;;0.70;99.90;;;;;;4978747;28;20132;-86
2024/01/20 01:10:21;;;;;;;14.10;8.10;;;0.70;99.90;;;;;;5010001;28;20034;-87
2024/01/20 01:12:47;;;;;;;15.93;9.30;;;0.70;99.90;;;;;;4993368;28;20061;-86
2024/01/20 01:15:12;;;;;;;14.87;9.27;;;0.80;99.90;;;;;;4994197;28;20064;-86
2024/01/20 01:17:38;;;;;;;13.33;9.00;;;0.80;99.90;;;;;;5000637;28;20034;-85
2024/01/20 01:20:04;;;;;;;19.30;9.80;;;0.80;99.90;;;;;;5010913;28;20046;-86
2024/01/20 01:22:30;;;;;;;14.57;9.30;;;0.80;99.90;;;;;;5015771;28;20038;-86
2024/01/20 01:24:55;;;;;;;15.80;8.97;;;0.80;99.90;;;;;;4993861;28;20421;-85
2024/01/20 01:27:21;;;;;;;14.53;8.27;;;0.90;99.90;;;;;;4993188;28;20044;-86
2024/01/20 01:29:47;;;;;;;14.43;9.43;;;0.90;99.90;;;;;;4992878;28;20033;-86
2024/01/20 01:32:12;;;;;;;17.37;9.00;;;0.90;99.90;;;;;;4973560;28;20143;-86
2024/01/20 01:34:38;;;;;;;17.87;10.07;;;0.90;99.90;;;;;;4993004;28;20164;-86
2024/01/20 01:37:03;;;;;;;15.27;9.20;;;0.90;99.90;;;;;;4992169;28;20042;-86
2024/01/20 01:39:29;;;;;;;16.10;9.43;;;0.90;99.90;;;;;;4997298;28;20446;-86
2024/01/20 01:41:55;;;;;;;14.90;9.73;;;2.30;99.90;;;;;;4994047;28;20046;-86
2024/01/20 01:44:20;;;;;;;14.47;9.07;;;0.90;99.90;;;;;;4994371;28;20121;-86
2024/01/20 01:46:46;;;;;;;15.27;9.40;;;0.90;99.90;;;;;;4994036;28;20084;-86
2024/01/20 01:49:12;;;;;;;15.70;9.10;;;1.00;99.90;;;;;;4987776;28;20037;-86
2024/01/20 01:51:38;;;;;;;15.13;9.53;;;2.10;99.90;;;;;;4994292;28;20080;-86
2024/01/20 01:54:04;;;;;;;15.13;9.93;;;0.90;99.90;;;;;;4975791;28;20041;-86
2024/01/20 01:56:30;;;;;;;15.27;9.50;;;0.90;99.90;;;;;;5014988;28;20508;-85
2024/01/20 01:58:57;;;;;;;17.23;10.53;;;0.90;99.90;;;;;;4991771;28;20104;-86
2024/01/20 02:01:23;;;;;;;16.63;10.43;;;0.90;99.90;;;;;;4993654;28;20564;-86
2024/01/20 02:03:49;;;;;;;16.10;9.60;;;1.00;99.90;;;;;;5009733;28;20140;-87
2024/01/20 02:06:16;;;;;;;17.77;10.03;;;0.90;99.90;;;;;;4993951;28;20382;-86
2024/01/20 02:08:42;;;;;;;16.10;9.77;;;1.00;99.90;;;;;;5011064;28;20038;-85
2024/01/20 02:11:08;;;;;;;14.63;10.13;;;1.00;99.90;;;;;;4982513;28;20061;-86
2024/01/20 02:13:34;;;;;;;18.13;10.27;;;0.90;99.90;;;;;;5010549;28;20182;-86
2024/01/20 02:16:01;;;;;;;17.03;10.60;;;0.90;99.90;;;;;;4989438;28;20083;-86
2024/01/20 02:18:27;;;;;;;16.80;11.27;;;0.90;99.90;;;;;;4991936;28;20555;-86
2024/01/20 02:20:53;;;;;;;14.20;10.30;;;0.90;99.90;;;;;;4978638;28;20037;-86
2024/01/20 02:23:19;;;;;;;14.87;10.60;;;0.90;99.90;;;;;;4993628;28;20080;-87
2024/01/20 02:25:46;;;;;;;16.57;10.50;;;0.80;99.90;;;;;;4976537;28;20401;-86
2024/01/20 02:28:11;;;;;;;15.13;10.50;;;0.80;99.90;;;;;;5005400;28;20187;-86
2024/01/20 02:30:37;;;;;;;19.07;10.37;;;0.90;99.90;;;;;;4990387;28;20121;-86
2024/01/20 02:33:03;;;;;;;17.97;10.47;;;0.80;99.90;;;;;;4975740;28;20378;-86
2024/01/20 02:35:29;;;;;;;18.63;11.00;;;0.80;99.90;;;;;;4976056;28;20160;-86
2024/01/20 02:37:55;;;;;;;17.90;10.80;;;0.80;99.90;;;;;;4967138;28;20116;-86
2024/01/20 02:40:20;;;;;;;18.50;10.93;;;2.10;99.90;;;;;;4993516;28;20129;-86
2024/01/20 02:42:46;;;;;;;17.20;11.20;;;0.70;99.90;;;;;;4993015;28;20097;-86
2024/01/20 02:45:12;;;;;;;18.17;12.00;;;0.70;99.90;;;;;;4992987;28;20087;-86
2024/01/20 02:47:37;;;;;;;21.90;12.53;;;0.70;99.90;;;;;;4976973;28;20038;-86
2024/01/20 02:50:03;;;;;;;17.83;12.17;;;0.60;99.90;;;;;;4993365;28;20375;-86
2024/01/20 02:52:29;;;;;;;19.20;12.10;;;0.60;99.90;;;;;;4981369;28;20038;-86
2024/01/20 02:54:54;;;;;;;23.73;12.50;;;0.50;99.90;;;;;;4994993;28;20516;-86
2024/01/20 02:57:20;;;;;;;18.20;12.27;;;0.50;99.90;;;;;;4994242;28;20048;-86
2024/01/20 02:59:46;;;;;;;22.73;12.83;;;0.40;99.90;;;;;;4980476;28;20038;-86
2024/01/20 03:02:11;;;;;;;19.73;13.20;;;0.30;99.90;;;;;;5014456;28;20069;-86
2024/01/20 03:04:37;;;;;;;21.13;14.37;;;0.20;99.90;;;;;;5014200;28;20038;-86
2024/01/20 03:07:03;;;;;;;24.07;14.83;;;0.20;99.90;;;;;;4997191;28;20049;-86
2024/01/20 03:09:28;;;;;;;20.97;13.27;;;0.20;99.90;;;;;;5014266;28;20111;-86
2024/01/20 03:11:54;;;;;;;24.20;15.03;;;0.10;99.90;;;;;;5004457;28;20112;-86
2024/01/20 03:14:20;;;;;;;19.87;14.73;;;0.10;99.90;;;;;;4997274;28;20038;-86
2024/01/20 03:16:45;;;;;;;25.00;16.57;;;0.00;99.90;;;;;;4995849;28;20038;-86
2024/01/20 03:19:11;;;;;;;23.43;15.27;;;0.00;99.90;;;;;;5007061;28;20045;-85
2024/01/20 03:21:37;;;;;;;26.17;17.07;;;0.00;99.90;;;;;;5014496;28;20034;-85
2024/01/20 03:24:03;;;;;;;23.67;16.03;;;-0.10;99.90;;;;;;4980637;28;20038;-86
2024/01/20 03:26:28;;;;;;;23.70;16.93;;;0.50;99.90;;;;;;5013779;28;20410;-86
2024/01/20 03:28:54;;;;;;;25.47;17.10;;;-0.20;99.90;;;;;;4996496;28;20141;-86
2024/01/20 03:31:19;;;;;;;27.40;18.33;;;-0.30;99.90;;;;;;4996558;28;20405;-86
2024/01/20 03:33:45;;;;;;;26.63;17.60;;;-0.30;99.90;;;;;;4996218;28;20042;-86
2024/01/20 03:36:11;;;;;;;31.00;20.70;;;-0.30;99.90;;;;;;5010975;28;20037;-86
2024/01/20 03:38:37;;;;;;;26.43;17.73;;;-0.30;99.90;;;;;;4993462;28;20052;-85
2024/01/20 03:41:03;;;;;;;28.53;19.07;;;-0.40;99.90;;;;;;4979852;28;20396;-86
2024/01/20 03:43:28;;;;;;;32.27;20.83;;;-0.20;99.90;;;;;;4981171;28;20033;-86
2024/01/20 03:45:55;;;;;;;26.67;18.63;;;-0.20;99.90;;;;;;4994030;28;20035;-86
2024/01/20 03:48:21;;;;;;;28.30;19.83;;;-0.20;99.90;;;;;;4996344;28;20038;-87
2024/01/20 03:50:47;;;;;;;32.10;19.17;;;-0.20;99.90;;;;;;4979960;28;20042;-86
2024/01/20 03:53:12;;;;;;;29.40;19.97;;;-0.10;99.90;;;;;;4996799;28;20042;-86
2024/01/20 03:55:38;;;;;;;34.33;20.30;;;-0.10;99.90;;;;;;4980014;28;20049;-85
2024/01/20 03:58:04;;;;;;;31.33;19.87;;;-0.20;99.90;;;;;;5013096;28;20049;-86
2024/01/20 04:00:29;;;;;;;31.80;19.63;;;-0.10;99.90;;;;;;4989133;28;20038;-86
2024/01/20 04:02:56;;;;;;;29.67;20.50;;;-0.10;99.90;;;;;;4993720;28;20588;-87
2024/01/20 04:05:21;;;;;;;32.20;20.47;;;-0.20;99.90;;;;;;5013464;28;20572;-86
2024/01/20 04:07:47;;;;;;;32.97;21.17;;;-0.10;99.90;;;;;;4993896;28;20057;-86
2024/01/20 04:10:12;;;;;;;27.70;19.63;;;-0.10;99.90;;;;;;4996170;28;20113;-86
2024/01/20 04:12:40;;;;;;;32.30;20.80;;;0.80;99.90;;;;;;4990363;28;20398;-86
2024/01/20 04:15:06;;;;;;;31.07;20.10;;;-0.20;99.90;;;;;;5005177;28;20057;-86
2024/01/20 04:17:32;;;;;;;29.07;20.23;;;-0.10;99.90;;;;;;4994766;28;20391;-86
2024/01/20 04:19:58;;;;;;;34.07;21.07;;;-0.20;99.90;;;;;;4979087;28;20137;-87
2024/01/20 04:22:23;;;;;;;32.20;21.13;;;-0.20;99.90;;;;;;5010042;28;20053;-86
2024/01/20 04:24:49;;;;;;;41.07;22.90;;;-0.20;99.90;;;;;;4978701;28;20064;-87
2024/01/20 04:27:15;;;;;;;35.97;22.37;;;-0.30;99.90;;;;;;4979662;28;20065;-86
2024/01/20 04:29:40;;;;;;;30.90;20.73;;;-0.30;99.90;;;;;;4979566;28;20498;-87
2024/01/20 04:32:06;;;;;;;32.87;21.03;;;0.20;99.90;;;;;;5008938;28;20116;-87
2024/01/20 04:34:31;;;;;;;31.97;21.70;;;-0.40;99.90;;;;;;5013051;28;20069;-87
2024/01/20 04:36:57;;;;;;;33.20;21.50;;;-0.40;99.90;;;;;;4988460;28;20443;-87
2024/01/20 04:39:22;;;;;;;37.10;22.30;;;-0.40;99.90;;;;;;4979930;28;20034;-85
2024/01/20 04:41:48;;;;;;;32.07;22.23;;;-0.50;99.90;;;;;;5009532;28;20088;-87
2024/01/20 04:44:14;;;;;;;32.60;21.77;;;-0.50;99.90;;;;;;4996037;28;20049;-86
2024/01/20 04:46:39;;;;;;;32.20;21.20;;;-0.50;99.90;;;;;;4991309;28;20037;-87
2024/01/20 04:49:05;;;;;;;34.73;22.83;;;-0.50;99.90;;;;;;5011908;28;20096;-87
2024/01/20 04:51:30;;;;;;;33.57;22.67;;;-0.50;99.90;;;;;;4979476;28;20113;-87
2024/01/20 04:53:56;;;;;;;38.20;23.57;;;-0.60;99.90;;;;;;5007301;28;20040;-87
2024/01/20 04:56:22;;;;;;;33.97;24.10;;;-0.50;99.90;;;;;;4991543;28;20058;-87
2024/01/20 04:58:53;;;;;;;39.33;24.37;;;-0.50;99.90;;;;;;4994508;28;20038;-87
2024/01/20 05:01:19;;;;;;;37.17;23.53;;;-0.50;99.90;;;;;;4977720;28;20100;-87
2024/01/20 05:03:45;;;;;;;34.10;23.33;;;-0.60;99.90;;;;;;4978864;28;20409;-88
2024/01/20 05:06:11;;;;;;;38.17;23.80;;;-0.60;99.90;;;;;;4993232;28;20038;-88
2024/01/20 05:08:36;;;;;;;39.57;24.17;;;-0.50;99.90;;;;;;4989451;28;20053;-87
2024/01/20 05:11:02;;;;;;;35.97;22.87;;;-0.50;99.90;;;;;;5006776;28;20030;-87
2024/01/20 05:13:27;;;;;;;34.87;24.17;;;-0.50;99.90;;;;;;4995184;28;20030;-87
2024/01/20 05:15:54;;;;;;;36.93;24.20;;;-0.60;99.90;;;;;;4983754;28;20509;-86
2024/01/20 05:18:20;;;;;;;38.07;24.77;;;-0.50;99.90;;;;;;4994250;28;20045;-86
2024/01/20 05:20:46;;;;;;;37.47;24.17;;;-0.60;99.90;;;;;;5013441;28;20084;-87
2024/01/20 05:23:12;;;;;;;39.53;23.13;;;-0.50;99.90;;;;;;5012130;28;20044;-88
2024/01/20 05:25:37;;;;;;;36.83;22.97;;;-0.60;99.90;;;;;;4992555;28;20042;-86
2024/01/20 05:28:04;;;;;;;37.23;22.87;;;-0.60;99.90;;;;;;4992296;28;20038;-87
2024/01/20 05:30:30;;;;;;;37.07;22.30;;;-0.60;99.90;;;;;;4990720;28;20084;-86
2024/01/20 05:32:55;;;;;;;42.10;24.03;;;-0.70;99.90;;;;;;4995095;28;20030;-86
2024/01/20 05:35:21;;;;;;;42.57;23.73;;;-0.60;99.90;;;;;;4993743;28;20034;-87
2024/01/20 05:37:46;;;;;;;43.23;24.23;;;-0.70;99.90;;;;;;4976305;28;20034;-87
2024/01/20 05:40:12;;;;;;;39.80;23.27;;;-0.60;99.90;;;;;;5006643;28;20034;-85
2024/01/20 05:42:38;;;;;;;36.77;23.80;;;-0.70;99.90;;;;;;5015483;28;20067;-85
2024/01/20 05:45:06;;;;;;;39.77;23.53;;;-0.70;99.90;;;;;;4992321;28;20125;-85
2024/01/20 05:47:31;;;;;;;39.23;23.60;;;-0.70;99.90;;;;;;4994718;28;20521;-86
2024/01/20 05:49:57;;;;;;;36.83;21.97;;;-0.70;99.90;;;;;;4992707;28;20037;-85
2024/01/20 05:52:23;;;;;;;38.87;24.33;;;-0.70;99.90;;;;;;4995393;28;20044;-85
2024/01/20 05:54:48;;;;;;;38.70;21.83;;;-0.80;99.90;;;;;;4977814;28;20034;-85
2024/01/20 05:57:14;;;;;;;40.70;23.80;;;-0.70;99.90;;;;;;4977994;28;20516;-86
2024/01/20 05:59:40;;;;;;;39.10;23.00;;;-0.70;99.90;;;;;;5013804;28;20034;-86
2024/01/20 06:02:05;;;;;;;45.57;24.70;;;-0.70;99.90;;;;;;4997723;28;20040;-85
2024/01/20 06:04:31;;;;;;;41.37;23.37;;;-0.80;99.90;;;;;;4976244;28;20037;-85
2024/01/20 06:06:56;;;;;;;39.07;22.17;;;-0.80;99.90;;;;;;4977104;28;20425;-85
2024/01/20 06:09:22;;;;;;;40.37;23.10;;;-0.80;99.90;;;;;;4976975;28;20042;-85
2024/01/20 06:11:48;;;;;;;48.47;24.37;;;-1.30;99.90;;;;;;5010221;28;20029;-86
2024/01/20 06:14:14;;;;;;;40.40;23.23;;;-0.70;99.90;;;;;;5010941;28;20042;-85
2024/01/20 06:16:41;;;;;;;39.43;22.50;;;-0.80;99.90;;;;;;5009663;28;20555;-85
2024/01/20 06:19:07;;;;;;;42.67;22.73;;;-0.70;99.90;;;;;;5010803;28;20045;-85
2024/01/20 06:21:33;;;;;;;37.97;22.33;;;-0.80;99.90;;;;;;4990225;28;20045;-86
2024/01/20 06:23:58;;;;;;;39.53;22.20;;;-0.80;99.90;;;;;;5009575;28;20112;-86
2024/01/20 06:26:24;;;;;;;40.60;22.00;;;-0.90;99.90;;;;;;4990083;28;20038;-86
2024/01/20 06:28:49;;;;;;;42.00;22.57;;;-0.80;99.90;;;;;;4994517;28;20046;-86
2024/01/20 06:31:27;;;;;;;39.80;21.37;;;-0.80;99.90;;;;;;4993945;28;20041;-86
2024/01/20 06:33:53;;;;;;;41.83;20.80;;;-0.90;99.90;;;;;;4977266;28;20084;-86
2024/01/20 06:36:21;;;;;;;41.33;22.33;;;-0.90;99.90;;;;;;4977878;28;20037;-86
2024/01/20 06:38:47;;;;;;;41.60;23.73;;;-0.90;99.90;;;;;;4993706;28;20482;-86
2024/01/20 06:41:14;;;;;;;37.57;22.20;;;0.40;99.90;;;;;;4993902;28;20042;-86
2024/01/20 06:43:39;;;;;;;40.67;22.20;;;-0.90;99.90;;;;;;4991434;28;20425;-86
2024/01/20 06:46:05;;;;;;;43.20;21.90;;;-0.90;99.90;;;;;;5005657;28;20050;-86
2024/01/20 06:48:33;;;;;;;35.43;20.73;;;-0.90;99.90;;;;;;5005916;28;20041;-86
2024/01/20 06:51:00;;;;;;;44.80;22.30;;;-0.90;99.90;;;;;;4985654;28;20498;-86
2024/01/20 06:53:27;;;;;;;39.70;21.57;;;-0.90;99.90;;;;;;4991260;28;20563;-89
2024/01/20 06:55:53;;;;;;;40.17;22.03;;;-0.10;99.90;;;;;;5009690;28;20038;-86
2024/01/20 06:58:19;;;;;;;43.17;21.97;;;-0.90;99.90;;;;;;4992091;28;20073;-87
2024/01/20 07:00:44;;;;;;;40.43;20.97;;;-0.90;99.90;;;;;;4990974;28;20121;-86
2024/01/20 07:03:10;;;;;;;41.53;21.43;;;-1.10;99.90;;;;;;4992434;28;20049;-86
2024/01/20 07:05:36;;;;;;;40.53;20.77;;;-0.80;99.90;;;;;;4975546;28;20034;-86
2024/01/20 07:08:02;;;;;;;39.67;20.10;;;-0.80;99.90;;;;;;4992335;28;20042;-86
2024/01/20 07:10:28;;;;;;;38.63;20.63;;;-0.80;99.90;;;;;;4986616;28;20655;-86
2024/01/20 07:12:54;;;;;;;40.40;21.97;;;0.40;99.90;;;;;;4976213;28;20041;-87
2024/01/20 07:15:19;;;;;;;44.60;21.63;;;0.70;99.90;;;;;;4976350;28;20073;-87
2024/01/20 07:17:45;;;;;;;38.03;20.43;;;-0.90;99.90;;;;;;4993809;28;20072;-87
2024/01/20 07:20:11;;;;;;;45.83;21.93;;;-0.90;99.90;;;;;;5010515;28;20038;-87
2024/01/20 07:22:38;;;;;;;42.50;21.27;;;-0.90;99.90;;;;;;5007291;28;20093;-86
2024/01/20 07:25:04;;;;;;;42.43;21.73;;;-0.90;99.90;;;;;;4993331;28;20049;-86
2024/01/20 07:27:30;;;;;;;44.87;22.13;;;-0.90;99.90;;;;;;4977176;28;20125;-87
2024/01/20 07:29:56;;;;;;;40.60;21.80;;;-0.90;99.90;;;;;;4993388;28;20125;-86
2024/01/20 07:32:22;;;;;;;43.53;21.93;;;-0.90;99.90;;;;;;4993787;28;20122;-86
2024/01/20 07:34:47;;;;;;;47.73;24.27;;;-0.90;99.90;;;;;;4979000;28;20405;-87
2024/01/20 07:37:13;;;;;;;44.77;23.47;;;-0.90;99.90;;;;;;4997533;28;20046;-86
2024/01/20 07:39:38;;;;;;;41.70;22.17;;;-0.80;99.90;;;;;;4981180;28;20100;-86
2024/01/20 07:42:04;;;;;;;44.93;22.90;;;-0.80;99.90;;;;;;4997101;28;20084;-87
2024/01/20 07:44:30;;;;;;;45.10;22.87;;;-0.70;99.90;;;;;;4997160;28;20034;-86
2024/01/20 07:46:56;;;;;;;47.10;22.60;;;-0.70;99.90;;;;;;4997007;28;20441;-86
2024/01/20 07:49:22;;;;;;;46.77;23.57;;;-0.70;99.90;;;;;;4997281;28;20424;-87
2024/01/20 07:51:48;;;;;;;43.33;23.80;;;-0.10;99.90;;;;;;4980465;28;20121;-86
2024/01/20 07:54:16;;;;;;;46.07;22.50;;;-0.70;99.90;;;;;;4980356;28;20522;-86
2024/01/20 07:56:42;;;;;;;43.93;22.73;;;-0.60;99.90;;;;;;4997062;28;20045;-87
2024/01/20 07:59:07;;;;;;;45.47;22.93;;;-0.60;99.90;;;;;;5014650;28;20405;-87
2024/01/20 08:01:33;;;;;;;45.83;23.23;;;-0.60;99.90;;;;;;4995562;28;20076;-87
2024/01/20 08:03:59;;;;;;;46.13;22.70;;;-0.60;99.90;;;;;;5014108;28;20038;-86
2024/01/20 08:06:26;;;;;;;47.73;22.50;;;-0.60;99.90;;;;;;4996799;28;20544;-87
2024/01/20 08:08:52;;;;;;;53.33;23.33;;;-0.60;99.90;;;;;;4996467;28;20041;-85
2024/01/20 08:11:18;;;;;;;48.57;22.90;;;-0.50;99.90;;;;;;4980222;28;20054;-87
2024/01/20 08:13:43;;;;;;;43.47;22.30;;;-0.50;99.90;;;;;;4996765;28;20417;-87
2024/01/20 08:16:09;;;;;;;42.47;20.90;;;-0.50;99.90;;;;;;4988396;28;20045;-87
2024/01/20 08:18:35;;;;;;;45.00;22.73;;;-0.50;99.90;;;;;;5014217;28;20548;-87
2024/01/20 08:21:06;;;;;;;44.20;22.63;;;-0.50;99.90;;;;;;5014073;28;20386;-86
2024/01/20 08:23:31;;;;;;;43.03;21.93;;;-0.40;99.90;;;;;;4995324;28;20069;-87
2024/01/20 08:25:58;;;;;;;45.33;23.00;;;-0.40;99.90;;;;;;5012189;28;20465;-86
2024/01/20 08:28:23;;;;;;;38.47;20.57;;;-0.40;99.90;;;;;;4988779;28;20126;-86
2024/01/20 08:30:49;;;;;;;45.10;22.13;;;-0.30;99.90;;;;;;4982137;28;20120;-87
2024/01/20 08:33:15;;;;;;;48.00;24.87;;;-0.30;99.90;;;;;;4991227;28;20042;-87
2024/01/20 08:35:40;;;;;;;41.77;21.37;;;-0.30;99.90;;;;;;4989910;28;20045;-87
2024/01/20 08:38:06;;;;;;;40.70;22.60;;;1.20;99.90;;;;;;4989856;28;20135;-86
2024/01/20 08:40:32;;;;;;;47.10;22.97;;;-0.20;99.90;;;;;;4990497;28;20096;-86
2024/01/20 08:42:58;;;;;;;46.87;22.30;;;-0.20;99.90;;;;;;4992019;28;20057;-86
2024/01/20 08:45:23;;;;;;;42.23;21.77;;;-0.10;99.90;;;;;;4992601;28;20046;-86
2024/01/20 08:47:49;;;;;;;46.30;23.70;;;-0.10;99.90;;;;;;5006140;28;20045;-87
2024/01/20 08:50:14;;;;;;;42.87;22.50;;;-0.10;99.90;;;;;;4989799;28;20038;-86
2024/01/20 08:52:40;;;;;;;44.60;21.80;;;0.00;99.90;;;;;;4994681;28;20029;-86
2024/01/20 08:55:06;;;;;;;42.13;23.03;;;0.00;99.90;;;;;;5011071;28;20038;-86
2024/01/20 08:57:33;;;;;;;42.57;22.63;;;0.00;99.90;;;;;;4979569;28;20073;-87
2024/01/20 08:59:59;;;;;;;39.47;21.47;;;1.30;99.90;;;;;;4992992;28;20564;-86
2024/01/20 09:02:25;;;;;;;40.27;22.20;;;0.10;99.90;;;;;;4983662;28;20038;-86
2024/01/20 09:04:50;;;;;;;44.87;22.07;;;0.10;99.90;;;;;;4994282;28;20038;-86
2024/01/20 09:07:16;;;;;;;44.03;21.93;;;0.10;99.90;;;;;;4992189;28;20042;-86
2024/01/20 09:09:42;;;;;;;42.13;22.47;;;0.20;99.90;;;;;;5012886;28;20032;-86
2024/01/20 09:12:07;;;;;;;40.33;20.30;;;0.00;99.90;;;;;;4978885;28;20041;-86
2024/01/20 09:14:33;;;;;;;42.50;21.40;;;0.20;99.90;;;;;;4994343;28;20040;-87
2024/01/20 09:16:59;;;;;;;39.33;21.10;;;0.20;99.90;;;;;;4990002;28;20045;-86
2024/01/20 09:19:24;;;;;;;40.17;20.77;;;0.30;99.90;;;;;;4990687;28;20037;-86
2024/01/20 09:21:50;;;;;;;41.30;20.80;;;1.80;99.90;;;;;;4978708;28;20449;-86
2024/01/20 09:24:16;;;;;;;38.93;21.47;;;0.30;99.90;;;;;;4993226;28;20038;-86
2024/01/20 09:26:42;;;;;;;38.30;20.47;;;0.40;99.90;;;;;;5012528;28;20034;-87
2024/01/20 09:29:07;;;;;;;45.00;22.57;;;0.40;99.90;;;;;;4978219;28;20034;-87
2024/01/20 09:31:33;;;;;;;40.60;19.53;;;0.40;99.90;;;;;;4994864;28;20504;-88
2024/01/20 09:33:59;;;;;;;42.57;20.50;;;0.50;99.90;;;;;;4990782;28;20044;-87
2024/01/20 09:36:24;;;;;;;37.67;20.37;;;2.10;99.90;;;;;;5010632;28;20065;-87
2024/01/20 09:38:50;;;;;;;37.43;19.43;;;0.50;99.90;;;;;;4990389;28;20037;-87
2024/01/20 09:41:16;;;;;;;34.20;18.80;;;0.60;99.90;;;;;;4991066;28;20452;-87
2024/01/20 09:44:08;;;;;;;42.27;20.37;;;1.80;99.90;;;;;;5012579;28;20042;-87
2024/01/20 09:46:50;;;;;;;38.33;19.80;;;0.30;99.90;;;;;;4979429;28;20413;-87
2024/01/20 09:49:31;;;;;;;37.83;18.80;;;-0.20;99.90;;;;;;5011439;28;20445;-87
2024/01/20 09:52:20;;;;;;;37.93;19.60;;;2.10;99.90;;;;;;4976790;28;20038;-87
2024/01/20 09:55:01;;;;;;;38.73;18.83;;;0.00;99.90;;;;;;5011876;28;20036;-87
2024/01/20 09:57:28;;;;;;;39.43;19.60;;;0.80;99.90;;;;;;4992358;28;20045;-87
2024/01/20 09:59:54;;;;;;;44.60;20.60;;;0.80;99.90;;;;;;5009220;28;20056;-87
2024/01/20 10:02:22;;;;;;;34.73;18.60;;;1.60;99.90;;;;;;4990390;28;20100;-87
2024/01/20 10:12:33;;;;;;;37.87;18.50;;;0.90;99.90;;;;;;1269741;22;20389;-86
2024/01/20 10:14:59;;;;;;;33.37;17.53;;;0.90;99.90;;;;;;4975668;28;20128;-86
2024/01/20 10:17:25;;;;;;;38.20;19.50;;;1.00;99.90;;;;;;4983477;28;20030;-85
2024/01/20 10:19:50;;;;;;;34.57;18.33;;;1.00;99.90;;;;;;4976680;28;20521;-85
2024/01/20 10:22:16;;;;;;;33.77;17.83;;;1.00;99.90;;;;;;4957837;28;20084;-85
2024/01/20 10:25:00;;;;;;;35.80;18.10;;;1.30;99.90;;;;;;4960464;28;20045;-86
2024/01/20 10:27:25;;;;;;;34.75;18.05;;;1.10;99.90;;;;;;4958293;28;20043;-86
2024/01/20 10:29:51;;;;;;;33.37;17.70;;;1.10;99.90;;;;;;4979080;28;20045;-86
2024/01/20 10:32:17;;;;;;;32.93;18.00;;;1.20;99.90;;;;;;4970415;28;20030;-85
2024/01/20 10:34:44;;;;;;;36.20;17.77;;;1.20;99.90;;;;;;4977606;28;20033;-87
2024/01/20 10:37:11;;;;;;;35.57;18.03;;;1.20;99.90;;;;;;4994657;28;20077;-85
2024/01/20 10:39:44;;;;;;;33.00;17.13;;;1.20;99.90;;;;;;4979202;28;20109;-87
2024/01/20 10:42:14;;;;;;;36.27;17.63;;;1.20;99.90;;;;;;4959254;28;20053;-87
2024/01/20 10:45:08;;;;;;;33.30;17.10;;;1.20;99.90;;;;;;4958618;28;20074;-87
2024/01/20 10:47:33;;;;;;;;;;;1.30;99.90;;;;;;4971757;28;20112;-87
2024/01/20 10:50:04;;;;;;;35.27;17.50;;;2.40;99.90;;;;;;4976644;28;19922;-87
2024/01/20 10:52:33;;;;;;;36.30;19.07;;;1.30;99.90;;;;;;4959861;28;20045;-87
2024/01/20 10:55:03;;;;;;;32.57;17.73;;;1.30;99.90;;;;;;4966750;28;20076;-87
2024/01/20 10:57:29;;;;;;;41.27;18.23;;;1.30;99.90;;;;;;4977508;28;20091;-87
2024/01/20 10:59:57;;;;;;;36.23;17.27;;;1.30;99.90;;;;;;4961687;28;20081;-87
2024/01/20 11:02:24;;;;;;;33.80;17.10;;;1.30;99.90;;;;;;4981157;28;20088;-87
2024/01/20 11:04:50;;;;;;;31.50;17.03;;;1.30;99.90;;;;;;4981553;28;20374;-87
2024/01/20 11:07:28;;;;;;;34.73;17.70;;;1.40;99.90;;;;;;4981260;28;20097;-88
2024/01/20 11:09:58;;;;;;;31.30;16.60;;;1.40;99.90;;;;;;5001515;28;20506;-87
2024/01/20 11:12:25;;;;;;;33.03;16.90;;;1.40;99.90;;;;;;4984106;28;20030;-88
2024/01/20 11:14:55;;;;;;;31.47;17.00;;;1.40;99.90;;;;;;4981408;28;20045;-87
2024/01/20 11:17:22;;;;;;;34.07;17.43;;;2.90;99.90;;;;;;4970582;28;20489;-87
2024/01/20 11:19:47;;;;;;;31.83;17.03;;;2.30;99.90;;;;;;4965235;28;20469;-86
2024/01/20 11:22:34;;;;;;;33.70;18.07;;;1.40;99.90;;;;;;4978287;28;20042;-88
2024/01/20 11:25:08;;;;;;;34.40;17.83;;;1.40;99.90;;;;;;4977647;28;20042;-87
2024/01/20 11:27:47;;;;;;;37.77;18.77;;;1.40;99.90;;;;;;4977999;28;20041;-88
2024/01/20 11:30:14;;;;;;;36.20;18.23;;;1.40;99.90;;;;;;4956685;28;20053;-90
2024/01/20 11:32:40;;;;;;;35.20;18.17;;;1.40;99.90;;;;;;4967909;28;20041;-87
2024/01/20 11:35:06;;;;;;;36.67;17.77;;;2.80;99.90;;;;;;4995094;28;20054;-87
2024/01/20 11:37:33;;;;;;;32.27;17.53;;;1.40;99.90;;;;;;4977492;28;20057;-87
2024/01/20 11:40:05;;;;;;;35.80;18.67;;;1.40;99.90;;;;;;4977706;28;20046;-87
2024/01/20 11:42:33;;;;;;;36.03;18.17;;;1.40;99.90;;;;;;4972498;28;20046;-87
2024/01/20 11:45:03;;;;;;;36.67;17.73;;;1.40;99.90;;;;;;4977406;28;20046;-87
2024/01/20 11:47:29;;;;;;;40.10;19.53;;;1.40;99.90;;;;;;4957964;28;20126;-87
2024/01/20 11:49:55;;;;;;;36.97;19.40;;;1.40;99.90;;;;;;4975201;28;20070;-87
2024/01/20 11:52:27;;;;;;;37.50;19.27;;;1.40;99.90;;;;;;4974038;28;20038;-87
2024/01/20 11:54:53;;;;;;;36.57;18.57;;;1.40;99.90;;;;;;4960328;28;20460;-87
2024/01/20 11:57:32;;;;;;;40.53;19.27;;;2.70;99.90;;;;;;4977301;28;20050;-87
2024/01/20 11:59:58;;;;;;;43.00;19.67;;;1.50;99.90;;;;;;4961100;28;20125;-87
2024/01/20 12:02:24;;;;;;;38.27;19.00;;;1.50;99.90;;;;;;4977146;28;20046;-87
2024/01/20 12:04:50;;;;;;;39.47;20.40;;;1.50;99.90;;;;;;4960690;28;20042;-87
2024/01/20 12:07:17;;;;;;;39.13;19.13;;;1.50;99.90;;;;;;4977287;28;20449;-87
2024/01/20 12:09:46;;;;;;;38.47;19.93;;;2.80;99.90;;;;;;4960801;28;20046;-87
2024/01/20 12:12:13;;;;;;;39.77;19.63;;;1.50;99.90;;;;;;4976940;28;20178;-86
2024/01/20 12:14:45;;;;;;;38.73;20.97;;;1.60;99.90;;;;;;4977130;28;20052;-85
2024/01/20 12:17:11;;;;;;;36.47;20.30;;;1.60;99.90;;;;;;4977360;28;20139;-87
2024/01/20 12:19:39;;;;;;;37.13;19.33;;;1.60;99.90;;;;;;4961330;28;20405;-86
2024/01/20 12:22:09;;;;;;;40.50;18.30;;;1.60;99.90;;;;;;4959455;28;20039;-86
2024/01/20 12:24:36;;;;;;;37.67;19.53;;;1.40;99.90;;;;;;4971555;28;20038;-86
2024/01/20 12:27:02;;;;;;;38.13;19.67;;;1.70;99.90;;;;;;4994036;28;20189;-86
2024/01/20 12:29:29;;;;;;;37.20;18.80;;;1.80;99.90;;;;;;4958932;28;20062;-86
2024/01/20 12:31:56;;;;;;;39.93;18.70;;;1.80;99.90;;;;;;4991525;28;20497;-87
2024/01/20 12:34:25;;;;;;;39.80;19.80;;;1.90;99.90;;;;;;4976370;28;20469;-86
2024/01/20 12:36:52;;;;;;;37.60;20.30;;;1.90;99.90;;;;;;4957385;28;20044;-86
2024/01/20 12:39:18;;;;;;;34.77;19.17;;;1.90;99.90;;;;;;4960525;28;20121;-87
2024/01/20 12:41:44;;;;;;;34.13;18.73;;;1.90;99.90;;;;;;4959999;28;20044;-86